Time;durP1;ratioP1;P1;durP2;ratioP2;P2;SDS_P1;SDS_P2;PMS_P1;PMS_P2;Temp;Humidity;BMP_temperature;BMP_pressure;BME280_temperature;BME280_humidity;BME280_pressure;Samples;Min_cycle;Max_cycle;Signal;HPM_P1;HPM_P2
2022/03/05 00:02:21;;;;;;;30.67;19.10;;;5.60;86.70;;;;;;5020986;28;20203;-68
2022/03/05 00:04:49;;;;;;;31.90;20.30;;;5.60;86.80;;;;;;5019416;28;20253;-68
2022/03/05 00:07:16;;;;;;;33.57;20.20;;;5.60;86.50;;;;;;5004787;28;20219;-68
2022/03/05 00:09:43;;;;;;;36.67;19.97;;;5.50;86.20;;;;;;5010048;28;20219;-68
2022/03/05 00:12:10;;;;;;;30.70;19.97;;;5.50;86.10;;;;;;5021636;28;20214;-68
2022/03/05 00:14:37;;;;;;;33.33;21.33;;;5.50;86.10;;;;;;5012880;28;20524;-68
2022/03/05 00:17:07;;;;;;;31.97;21.03;;;5.40;86.20;;;;;;5033798;28;20199;-68
2022/03/05 00:19:34;;;;;;;45.90;21.73;;;5.40;86.50;;;;;;5030143;28;20238;-68
2022/03/05 00:22:02;;;;;;;31.73;20.83;;;5.40;86.60;;;;;;5030012;28;20519;-68
2022/03/05 00:24:29;;;;;;;34.70;21.70;;;5.40;86.70;;;;;;5020253;28;20214;-68
2022/03/05 00:26:57;;;;;;;31.47;21.53;;;5.30;86.90;;;;;;5018287;28;20214;-68
2022/03/05 00:29:25;;;;;;;38.77;22.13;;;5.30;87.10;;;;;;5022834;28;20260;-68
2022/03/05 00:31:52;;;;;;;31.07;20.67;;;5.30;87.60;;;;;;5020773;28;20293;-68
2022/03/05 00:34:19;;;;;;;36.30;20.77;;;5.30;87.60;;;;;;5022102;28;20293;-68
2022/03/05 00:36:47;;;;;;;32.80;21.10;;;5.30;87.30;;;;;;5018430;28;20209;-68
2022/03/05 00:39:14;;;;;;;35.03;21.83;;;5.20;86.20;;;;;;5021924;28;20226;-68
2022/03/05 00:41:41;;;;;;;32.97;22.03;;;5.10;86.50;;;;;;5027254;28;20222;-68
2022/03/05 00:44:08;;;;;;;40.27;21.60;;;5.00;87.50;;;;;;5020488;28;20214;-68
2022/03/05 00:46:35;;;;;;;37.00;21.40;;;4.90;87.50;;;;;;5019575;28;20207;-68
2022/03/05 00:49:03;;;;;;;34.17;22.63;;;4.90;88.10;;;;;;5018049;28;20209;-68
2022/03/05 00:51:30;;;;;;;31.47;21.00;;;4.80;89.00;;;;;;5025851;28;20214;-68
2022/03/05 00:53:57;;;;;;;38.37;21.77;;;4.80;88.60;;;;;;5027377;28;20208;-68
2022/03/05 00:56:24;;;;;;;55.77;22.83;;;4.80;89.10;;;;;;5021757;28;20263;-68
2022/03/05 00:58:51;;;;;;;33.87;21.23;;;4.80;89.40;;;;;;5021219;28;20239;-68
2022/03/05 01:01:19;;;;;;;35.67;23.33;;;4.70;89.40;;;;;;5020606;28;20215;-68
2022/03/05 01:03:46;;;;;;;33.93;23.27;;;4.80;89.60;;;;;;5024672;28;20205;-68
2022/03/05 01:06:13;;;;;;;36.23;23.20;;;4.80;89.80;;;;;;5021780;28;20202;-68
2022/03/05 01:08:40;;;;;;;36.73;23.57;;;4.80;90.00;;;;;;5019258;28;20222;-68
2022/03/05 01:11:08;;;;;;;34.53;21.63;;;4.80;90.00;;;;;;5018398;28;20221;-68
2022/03/05 01:13:36;;;;;;;32.33;20.97;;;4.80;90.00;;;;;;5023698;28;20204;-68
2022/03/05 01:16:03;;;;;;;27.57;18.40;;;4.80;89.30;;;;;;5027678;28;20639;-68
2022/03/05 01:18:30;;;;;;;31.97;21.47;;;4.80;88.80;;;;;;5023790;28;20276;-68
2022/03/05 01:20:58;;;;;;;29.67;20.60;;;4.80;88.20;;;;;;5020253;28;20284;-68
2022/03/05 01:23:25;;;;;;;32.97;21.33;;;4.80;88.10;;;;;;5018663;28;20679;-68
2022/03/05 01:25:52;;;;;;;34.43;20.77;;;4.80;88.20;;;;;;5023683;28;20216;-65
2022/03/05 01:28:19;;;;;;;34.40;21.23;;;4.80;88.10;;;;;;5023781;28;20202;-67
2022/03/05 01:30:46;;;;;;;29.13;20.50;;;4.80;88.30;;;;;;5018195;28;20211;-67
2022/03/05 01:33:15;;;;;;;32.13;20.63;;;4.80;88.30;;;;;;5017931;28;20238;-67
2022/03/05 01:35:42;;;;;;;34.43;23.07;;;4.80;87.60;;;;;;5026071;28;20211;-67
2022/03/05 01:38:10;;;;;;;33.73;22.63;;;4.70;87.40;;;;;;5024536;28;20229;-67
2022/03/05 01:40:39;;;;;;;40.07;23.93;;;4.70;88.00;;;;;;5020493;28;20210;-67
2022/03/05 01:43:06;;;;;;;32.23;21.40;;;4.70;88.70;;;;;;5008780;28;20558;-67
2022/03/05 01:45:34;;;;;;;34.43;21.40;;;4.60;89.10;;;;;;5020135;28;20202;-67
2022/03/05 01:48:01;;;;;;;34.33;21.37;;;4.60;89.20;;;;;;5024316;28;20213;-67
2022/03/05 01:50:30;;;;;;;37.80;22.30;;;4.60;88.80;;;;;;5027282;28;20223;-67
2022/03/05 01:52:57;;;;;;;31.97;21.43;;;4.50;88.20;;;;;;5019312;28;20315;-67
2022/03/05 01:55:25;;;;;;;37.70;24.30;;;4.50;88.40;;;;;;5018264;28;20557;-67
2022/03/05 01:57:53;;;;;;;38.77;23.20;;;4.50;88.60;;;;;;5022947;28;20201;-67
2022/03/05 02:00:20;;;;;;;37.03;21.57;;;4.40;89.10;;;;;;5023156;28;20245;-67
2022/03/05 02:02:47;;;;;;;33.63;20.47;;;4.50;89.20;;;;;;5019655;28;20210;-67
2022/03/05 02:05:15;;;;;;;38.10;23.80;;;4.30;87.30;;;;;;5016833;28;20201;-67
2022/03/05 02:07:43;;;;;;;36.40;23.70;;;4.20;87.40;;;;;;5016034;28;20205;-67
2022/03/05 02:10:10;;;;;;;35.87;23.23;;;4.10;88.50;;;;;;5026565;28;20221;-67
2022/03/05 02:12:38;;;;;;;36.23;21.73;;;4.10;89.40;;;;;;5009020;28;20215;-67
2022/03/05 02:15:07;;;;;;;39.87;23.63;;;4.00;89.80;;;;;;5022669;28;20217;-67
2022/03/05 02:17:35;;;;;;;33.07;21.60;;;4.00;89.80;;;;;;5020671;28;20200;-67
2022/03/05 02:20:04;;;;;;;35.43;21.80;;;4.00;90.00;;;;;;5019663;28;20229;-67
2022/03/05 02:22:31;;;;;;;30.97;21.53;;;4.00;90.30;;;;;;5025419;28;20218;-67
2022/03/05 02:24:59;;;;;;;34.80;21.17;;;4.00;89.90;;;;;;5019390;28;20213;-67
2022/03/05 02:27:27;;;;;;;36.57;23.13;;;4.00;89.10;;;;;;5013907;28;20221;-67
2022/03/05 02:29:57;;;;;;;37.10;22.60;;;4.00;88.80;;;;;;5017781;28;20718;-67
2022/03/05 02:32:25;;;;;;;36.20;22.80;;;3.90;89.30;;;;;;5022485;28;20202;-67
2022/03/05 02:34:52;;;;;;;38.37;24.50;;;3.90;90.00;;;;;;5021025;28;20221;-67
2022/03/05 02:37:20;;;;;;;37.63;26.13;;;3.90;90.50;;;;;;5017389;28;20211;-67
2022/03/05 02:39:47;;;;;;;41.73;25.57;;;3.90;90.70;;;;;;5024051;28;20225;-67
2022/03/05 02:42:15;;;;;;;38.70;25.00;;;3.90;90.90;;;;;;5022211;28;20244;-67
2022/03/05 02:44:42;;;;;;;45.67;25.33;;;3.90;91.00;;;;;;5024102;28;20623;-67
2022/03/05 02:47:11;;;;;;;38.30;25.13;;;4.00;91.10;;;;;;5007100;28;20230;-67
2022/03/05 02:49:38;;;;;;;42.10;24.53;;;4.00;90.80;;;;;;5015153;28;20202;-67
2022/03/05 02:52:06;;;;;;;38.90;24.20;;;3.90;90.80;;;;;;5018564;28;20205;-67
2022/03/05 02:54:34;;;;;;;36.27;23.73;;;3.90;90.90;;;;;;5025143;28;20536;-67
2022/03/05 02:57:02;;;;;;;36.07;23.53;;;3.90;90.90;;;;;;5020490;28;20288;-67
2022/03/05 02:59:29;;;;;;;33.97;22.83;;;3.90;90.80;;;;;;5015977;28;20254;-67
2022/03/05 03:01:56;;;;;;;35.20;22.63;;;3.90;91.00;;;;;;5021770;28;20230;-67
2022/03/05 03:04:23;;;;;;;40.93;24.87;;;3.90;90.60;;;;;;5026215;28;20289;-67
2022/03/05 03:06:50;;;;;;;36.40;23.00;;;3.90;90.60;;;;;;5004235;28;20227;-67
2022/03/05 03:09:17;;;;;;;40.53;23.33;;;3.90;90.60;;;;;;5010680;28;20301;-67
2022/03/05 03:11:45;;;;;;;39.90;24.40;;;4.00;90.60;;;;;;5016199;28;20296;-67
2022/03/05 03:14:12;;;;;;;36.63;24.03;;;4.00;90.60;;;;;;5019546;28;20204;-68
2022/03/05 03:16:39;;;;;;;37.63;23.73;;;4.00;90.60;;;;;;5006464;28;20207;-67
2022/03/05 03:19:06;;;;;;;35.73;22.00;;;4.10;90.50;;;;;;5022604;28;20314;-67
2022/03/05 03:21:33;;;;;;;34.77;22.63;;;4.10;90.40;;;;;;4998010;28;20224;-67
2022/03/05 03:24:00;;;;;;;36.40;21.57;;;4.10;90.30;;;;;;4997150;28;20254;-67
2022/03/05 03:26:27;;;;;;;32.73;22.37;;;4.10;90.30;;;;;;5020838;28;20271;-67
2022/03/05 03:28:54;;;;;;;35.87;22.10;;;4.10;90.20;;;;;;5020436;28;20687;-67
2022/03/05 03:31:21;;;;;;;35.70;24.10;;;4.10;90.10;;;;;;5017421;28;20535;-67
2022/03/05 03:33:48;;;;;;;34.97;22.33;;;4.10;90.10;;;;;;5022301;28;20224;-67
2022/03/05 03:36:16;;;;;;;46.07;23.60;;;4.00;90.00;;;;;;5005143;28;20216;-67
2022/03/05 03:38:43;;;;;;;35.37;23.50;;;4.00;89.90;;;;;;5024234;28;20226;-67
2022/03/05 03:41:10;;;;;;;35.30;23.00;;;4.00;89.80;;;;;;5027148;28;20206;-67
2022/03/05 03:43:37;;;;;;;37.33;22.90;;;4.00;89.80;;;;;;5015648;28;20208;-67
2022/03/05 03:46:05;;;;;;;36.77;23.30;;;3.90;89.90;;;;;;5019582;28;20201;-67
2022/03/05 03:48:32;;;;;;;38.90;22.60;;;3.90;90.00;;;;;;5021217;28;20220;-68
2022/03/05 03:50:59;;;;;;;32.33;19.77;;;3.90;90.00;;;;;;5019799;28;20217;-68
2022/03/05 03:53:26;;;;;;;33.00;22.13;;;3.90;90.10;;;;;;5018178;28;20207;-67
2022/03/05 03:55:53;;;;;;;31.70;20.97;;;3.90;90.10;;;;;;5014378;28;20547;-67
2022/03/05 03:58:20;;;;;;;33.90;20.20;;;3.90;90.00;;;;;;5021629;28;20199;-67
2022/03/05 04:00:47;;;;;;;37.40;21.47;;;3.80;89.80;;;;;;5023237;28;20237;-67
2022/03/05 04:03:14;;;;;;;37.53;22.37;;;3.80;90.00;;;;;;5027444;28;20292;-67
2022/03/05 04:05:41;;;;;;;32.70;22.73;;;3.80;90.00;;;;;;5022187;28;20223;-67
2022/03/05 04:10:54;;;;;;;30.40;19.30;;;3.80;90.10;;;;;;5021984;28;20559;-67
2022/03/05 04:13:21;;;;;;;31.80;19.87;;;3.80;90.00;;;;;;5027173;28;20213;-67
2022/03/05 04:15:48;;;;;;;29.53;19.60;;;3.70;90.00;;;;;;5021492;28;20234;-67
2022/03/05 04:18:15;;;;;;;30.20;18.73;;;3.70;90.00;;;;;;5017461;28;20512;-67
2022/03/05 04:20:42;;;;;;;31.03;19.77;;;3.70;90.00;;;;;;5026286;28;20222;-68
2022/03/05 04:23:09;;;;;;;28.60;19.23;;;3.70;89.90;;;;;;5025437;28;20208;-68
2022/03/05 04:25:36;;;;;;;27.33;18.83;;;3.70;89.50;;;;;;5002447;28;20702;-67
2022/03/05 04:28:04;;;;;;;30.80;18.17;;;3.70;89.20;;;;;;5011431;28;20226;-67
2022/03/05 04:30:31;;;;;;;27.13;19.33;;;3.70;89.10;;;;;;5029065;28;20537;-67
2022/03/05 04:32:58;;;;;;;33.43;18.67;;;3.70;89.00;;;;;;5009131;28;20224;-67
2022/03/05 04:35:25;;;;;;;28.63;18.27;;;3.60;88.90;;;;;;5030153;28;20551;-67
2022/03/05 04:37:52;;;;;;;26.90;18.03;;;3.70;89.00;;;;;;5025336;28;20213;-67
2022/03/05 04:40:19;;;;;;;35.90;18.87;;;3.70;89.00;;;;;;5018792;28;20237;-67
2022/03/05 04:42:46;;;;;;;33.40;18.70;;;3.60;89.20;;;;;;5023518;28;20204;-67
2022/03/05 04:45:14;;;;;;;28.20;17.80;;;3.60;89.30;;;;;;5025144;28;20208;-67
2022/03/05 04:47:41;;;;;;;32.53;19.77;;;3.60;89.40;;;;;;5022180;28;20272;-67
2022/03/05 04:50:09;;;;;;;29.63;18.17;;;3.60;89.40;;;;;;5018892;28;20504;-67
2022/03/05 04:52:38;;;;;;;33.77;18.80;;;3.60;89.20;;;;;;5016706;28;20272;-67
2022/03/05 04:55:06;;;;;;;26.03;18.03;;;3.50;88.80;;;;;;5010989;28;20639;-67
2022/03/05 04:57:34;;;;;;;28.10;16.67;;;3.50;88.60;;;;;;5004535;28;20205;-67
2022/03/05 05:00:03;;;;;;;27.17;17.30;;;3.40;88.50;;;;;;5021843;28;20620;-67
2022/03/05 05:02:30;;;;;;;24.17;16.83;;;3.40;88.60;;;;;;5018771;28;20198;-67
2022/03/05 05:04:57;;;;;;;32.30;18.27;;;3.30;88.40;;;;;;5022888;28;20199;-67
2022/03/05 05:07:25;;;;;;;27.93;18.10;;;3.30;88.60;;;;;;5027791;28;20531;-67
2022/03/05 05:09:53;;;;;;;29.17;17.70;;;3.30;88.80;;;;;;5024115;28;20216;-67
2022/03/05 05:12:22;;;;;;;30.33;18.00;;;3.20;88.50;;;;;;4999149;28;20660;-67
2022/03/05 05:14:50;;;;;;;35.00;17.93;;;3.20;88.20;;;;;;5020772;28;20209;-67
2022/03/05 05:17:17;;;;;;;23.73;15.93;;;3.10;88.10;;;;;;5009525;28;20217;-67
2022/03/05 05:19:44;;;;;;;27.10;17.40;;;3.10;88.00;;;;;;5001617;28;20226;-68
2022/03/05 05:22:11;;;;;;;26.97;16.73;;;3.10;88.10;;;;;;5019323;28;20201;-68
2022/03/05 05:24:39;;;;;;;28.77;15.63;;;3.00;88.10;;;;;;5026180;28;20285;-68
2022/03/05 05:27:06;;;;;;;24.03;16.47;;;3.00;88.20;;;;;;5025907;28;20665;-68
2022/03/05 05:29:33;;;;;;;26.10;16.47;;;3.00;88.00;;;;;;5009521;28;20235;-68
2022/03/05 05:32:08;;;;;;;28.33;17.43;;;3.00;88.10;;;;;;5010002;28;20676;-68
2022/03/05 05:34:35;;;;;;;28.30;15.80;;;3.00;88.10;;;;;;5017552;28;20205;-68
2022/03/05 05:37:03;;;;;;;24.37;15.57;;;3.00;88.10;;;;;;5020986;28;20564;-68
2022/03/05 05:39:30;;;;;;;22.77;13.90;;;3.00;87.90;;;;;;5026258;28;20231;-68
2022/03/05 05:41:57;;;;;;;28.10;16.10;;;3.00;87.30;;;;;;5014401;28;20520;-68
2022/03/05 05:44:24;;;;;;;28.70;15.27;;;3.10;86.90;;;;;;5018180;28;20262;-68
2022/03/05 05:46:51;;;;;;;33.73;14.47;;;3.10;86.40;;;;;;5018512;28;20291;-68
2022/03/05 05:49:20;;;;;;;26.83;15.10;;;3.00;85.70;;;;;;5029190;28;20560;-68
2022/03/05 05:51:47;;;;;;;20.70;13.43;;;3.10;85.50;;;;;;5024183;28;20224;-68
2022/03/05 05:54:14;;;;;;;23.80;13.77;;;3.10;84.80;;;;;;5010183;28;20220;-68
2022/03/05 05:56:41;;;;;;;28.27;15.07;;;3.10;83.90;;;;;;5021021;28;20213;-68
2022/03/05 05:59:08;;;;;;;26.33;14.53;;;3.10;83.10;;;;;;5017789;28;20239;-68
2022/03/05 06:01:35;;;;;;;20.47;12.93;;;3.10;83.00;;;;;;5007976;28;20577;-68
2022/03/05 06:04:03;;;;;;;21.90;12.50;;;3.20;82.90;;;;;;5024353;28;20203;-68
2022/03/05 06:06:30;;;;;;;20.27;11.87;;;3.30;82.30;;;;;;5017518;28;20689;-68
2022/03/05 06:08:57;;;;;;;22.57;13.63;;;3.40;81.40;;;;;;5018217;28;20205;-68
2022/03/05 06:11:24;;;;;;;23.50;12.77;;;3.50;80.90;;;;;;4990650;28;20200;-68
2022/03/05 06:13:51;;;;;;;20.87;12.33;;;3.50;80.30;;;;;;5023980;28;20204;-68
2022/03/05 06:16:18;;;;;;;19.47;12.03;;;3.60;79.80;;;;;;5019576;28;20208;-67
2022/03/05 06:18:45;;;;;;;20.63;12.20;;;3.70;78.90;;;;;;5016816;28;20211;-67
2022/03/05 06:21:12;;;;;;;19.47;11.97;;;3.80;77.50;;;;;;5029951;28;20237;-67
2022/03/05 06:23:39;;;;;;;23.03;12.73;;;3.90;76.50;;;;;;5024645;28;20638;-67
2022/03/05 06:26:07;;;;;;;19.97;11.47;;;4.00;75.60;;;;;;5028798;28;20211;-67
2022/03/05 06:28:34;;;;;;;19.03;11.43;;;4.10;75.20;;;;;;5013389;28;20201;-68
2022/03/05 06:31:02;;;;;;;19.93;11.80;;;4.20;74.90;;;;;;5018073;28;20271;-68
2022/03/05 06:33:29;;;;;;;19.53;10.70;;;4.40;74.30;;;;;;5022129;28;20643;-68
2022/03/05 06:35:57;;;;;;;18.57;11.87;;;4.50;73.10;;;;;;5024052;28;20587;-68
2022/03/05 06:38:24;;;;;;;22.70;11.27;;;4.60;72.40;;;;;;5018696;28;20540;-68
2022/03/05 06:40:51;;;;;;;15.73;10.20;;;4.70;72.10;;;;;;5016071;28;20235;-67
2022/03/05 06:43:18;;;;;;;21.87;11.73;;;4.90;69.40;;;;;;5024640;28;20209;-67
2022/03/05 06:45:46;;;;;;;18.43;10.53;;;5.00;69.10;;;;;;5025439;28;20206;-67
2022/03/05 06:48:14;;;;;;;22.43;10.90;;;5.00;68.70;;;;;;5008684;28;20217;-67
2022/03/05 06:50:41;;;;;;;18.37;10.80;;;4.90;68.50;;;;;;5023312;28;20209;-67
2022/03/05 06:53:08;;;;;;;17.20;11.23;;;4.90;68.10;;;;;;5017463;28;20207;-67
2022/03/05 06:55:35;;;;;;;15.97;10.23;;;4.80;68.10;;;;;;5022679;28;20210;-67
2022/03/05 06:58:02;;;;;;;16.47;10.60;;;4.80;68.00;;;;;;5023618;28;20218;-67
2022/03/05 07:00:30;;;;;;;18.63;10.43;;;4.70;68.20;;;;;;5017835;28;20310;-67
2022/03/05 07:02:57;;;;;;;19.63;11.30;;;4.70;68.80;;;;;;5017666;28;20646;-67
2022/03/05 07:05:25;;;;;;;22.80;11.23;;;4.70;69.20;;;;;;5020635;28;20210;-67
2022/03/05 07:07:52;;;;;;;16.63;10.80;;;4.60;69.20;;;;;;5024277;28;20208;-67
2022/03/05 07:10:19;;;;;;;18.97;10.17;;;4.70;69.80;;;;;;5016056;28;20263;-67
2022/03/05 07:12:46;;;;;;;21.53;11.40;;;4.70;70.30;;;;;;5016672;28;20210;-67
2022/03/05 07:15:14;;;;;;;15.33;10.83;;;4.80;70.50;;;;;;5025015;28;20204;-67
2022/03/05 07:17:51;;;;;;;18.43;11.70;;;4.90;71.10;;;;;;5028269;28;20263;-67
2022/03/05 07:20:20;;;;;;;22.40;13.30;;;5.00;70.40;;;;;;5024547;28;20216;-67
2022/03/05 07:22:47;;;;;;;23.37;12.03;;;5.10;71.00;;;;;;5024835;28;20214;-67
2022/03/05 07:25:14;;;;;;;16.63;11.50;;;5.20;71.30;;;;;;5015864;28;20209;-67
2022/03/05 07:27:42;;;;;;;22.60;12.30;;;5.30;70.60;;;;;;5004148;28;20267;-67
2022/03/05 07:30:10;;;;;;;23.23;12.90;;;5.30;70.20;;;;;;5022953;28;20209;-67
2022/03/05 07:32:38;;;;;;;21.17;13.27;;;5.20;70.60;;;;;;5019515;28;20214;-67
2022/03/05 07:35:06;;;;;;;22.63;13.27;;;5.30;70.50;;;;;;5013698;28;20218;-67
2022/03/05 07:37:33;;;;;;;22.17;12.43;;;5.30;70.40;;;;;;5008279;28;20214;-67
2022/03/05 07:40:04;;;;;;;19.17;12.20;;;5.40;69.90;;;;;;5004074;28;20225;-67
2022/03/05 07:42:31;;;;;;;28.23;13.37;;;5.50;69.70;;;;;;5018936;28;20225;-67
2022/03/05 07:44:58;;;;;;;22.47;12.80;;;5.60;70.70;;;;;;5003838;28;20205;-67
2022/03/05 07:47:25;;;;;;;22.97;13.37;;;5.70;70.30;;;;;;5020507;28;20203;-67
2022/03/05 07:49:52;;;;;;;17.70;11.83;;;5.90;69.90;;;;;;5024043;28;20201;-67
2022/03/05 07:52:19;;;;;;;17.30;12.03;;;6.00;68.20;;;;;;5028272;28;20214;-67
2022/03/05 07:54:46;;;;;;;18.13;12.60;;;6.20;67.40;;;;;;5026600;28;20628;-67
2022/03/05 07:57:13;;;;;;;22.83;12.50;;;6.50;68.10;;;;;;5019299;28;20216;-67
2022/03/05 07:59:40;;;;;;;26.40;14.27;;;6.60;65.60;;;;;;5021205;28;20243;-67
2022/03/05 08:02:08;;;;;;;20.70;12.33;;;6.70;63.70;;;;;;5026909;28;20205;-67
2022/03/05 08:04:37;;;;;;;18.00;11.27;;;6.70;63.60;;;;;;5024873;28;20222;-67
2022/03/05 08:07:24;;;;;;;28.20;12.60;;;6.70;63.30;;;;;;5018479;28;20215;-67
2022/03/05 08:09:51;;;;;;;20.60;12.53;;;6.60;63.40;;;;;;5008494;28;20210;-67
2022/03/05 08:12:18;;;;;;;20.57;12.20;;;6.60;63.30;;;;;;5030514;28;20206;-67
2022/03/05 08:14:45;;;;;;;20.43;13.23;;;6.60;63.90;;;;;;5028665;28;20238;-67
2022/03/05 08:17:12;;;;;;;17.60;11.60;;;6.70;63.60;;;;;;5028202;28;20210;-67
2022/03/05 08:19:40;;;;;;;25.73;11.93;;;6.80;62.70;;;;;;5018122;28;20203;-67
2022/03/05 08:22:21;;;;;;;18.77;11.70;;;6.90;60.90;;;;;;5025396;28;20210;-67
2022/03/05 08:24:48;;;;;;;17.77;10.27;;;7.00;61.70;;;;;;5026682;28;20220;-67
2022/03/05 08:27:16;;;;;;;20.40;11.50;;;7.20;61.00;;;;;;5016531;28;20199;-67
2022/03/05 08:29:43;;;;;;;20.23;11.57;;;7.30;60.80;;;;;;5017708;28;20287;-67
2022/03/05 08:32:11;;;;;;;23.73;11.97;;;7.40;61.30;;;;;;5020378;28;20584;-67
2022/03/05 08:34:38;;;;;;;18.17;11.67;;;7.50;60.00;;;;;;5023592;28;20237;-67
2022/03/05 08:37:05;;;;;;;16.97;11.70;;;7.50;59.90;;;;;;5025760;28;20222;-67
2022/03/05 08:39:32;;;;;;;21.93;11.37;;;7.70;59.60;;;;;;5020914;28;20294;-67
2022/03/05 08:41:59;;;;;;;20.97;11.57;;;7.60;58.60;;;;;;5018493;28;20206;-67
2022/03/05 08:44:27;;;;;;;19.77;11.40;;;7.60;59.00;;;;;;5022238;28;20207;-67
2022/03/05 08:46:54;;;;;;;20.90;12.77;;;7.60;59.60;;;;;;5009381;28;20679;-67
2022/03/05 08:49:22;;;;;;;19.53;12.30;;;7.60;60.30;;;;;;5020692;28;20199;-67
2022/03/05 08:51:49;;;;;;;18.13;11.20;;;7.70;60.10;;;;;;5018606;28;20214;-67
2022/03/05 08:54:17;;;;;;;23.93;12.47;;;7.80;60.80;;;;;;5019428;28;20215;-68
2022/03/05 08:56:44;;;;;;;22.03;11.33;;;7.90;59.80;;;;;;5025284;28;20218;-67
2022/03/05 08:59:11;;;;;;;17.13;10.33;;;7.90;59.10;;;;;;5023290;28;20238;-67
2022/03/05 09:01:39;;;;;;;20.17;11.37;;;8.10;59.80;;;;;;5016620;28;20257;-67
2022/03/05 09:04:06;;;;;;;17.23;10.37;;;8.30;60.00;;;;;;5016789;28;20245;-67
2022/03/05 09:06:33;;;;;;;17.87;8.40;;;8.50;58.30;;;;;;5029716;28;20209;-67
2022/03/05 09:09:02;;;;;;;13.80;7.60;;;8.70;57.90;;;;;;5027405;28;20546;-67
2022/03/05 09:11:29;;;;;;;12.20;7.30;;;8.80;57.50;;;;;;5028455;28;20269;-67
2022/03/05 09:13:57;;;;;;;13.63;6.83;;;8.90;54.20;;;;;;5020954;28;20226;-67
2022/03/05 09:16:25;;;;;;;13.57;5.90;;;9.00;54.40;;;;;;5017668;28;20197;-67
2022/03/05 09:18:52;;;;;;;12.23;7.63;;;9.00;53.20;;;;;;5022712;28;20622;-67
2022/03/05 09:21:19;;;;;;;11.73;7.00;;;9.10;55.30;;;;;;5025586;28;20241;-67
2022/03/05 09:23:47;;;;;;;9.07;7.37;;;9.10;54.10;;;;;;5003859;28;20204;-67
2022/03/05 09:26:15;;;;;;;13.17;7.40;;;9.20;52.20;;;;;;5000272;28;20203;-68
2022/03/05 09:28:42;;;;;;;9.57;6.63;;;9.30;52.90;;;;;;5023483;28;20203;-67
2022/03/05 09:31:10;;;;;;;12.50;6.33;;;9.40;52.20;;;;;;5024498;28;20208;-67
2022/03/05 09:33:37;;;;;;;8.77;5.80;;;9.50;51.70;;;;;;5021871;28;20208;-67
2022/03/05 09:36:05;;;;;;;11.80;6.13;;;9.70;51.90;;;;;;5018623;28;20557;-67
2022/03/05 09:38:32;;;;;;;10.40;5.97;;;9.80;51.80;;;;;;5020835;28;20199;-67
2022/03/05 09:41:02;;;;;;;9.07;5.67;;;10.00;52.00;;;;;;5024331;28;20215;-68
2022/03/05 09:43:29;;;;;;;8.00;5.53;;;10.00;48.90;;;;;;5026048;28;20203;-68
2022/03/05 09:45:58;;;;;;;8.93;5.37;;;10.10;49.20;;;;;;5020195;28;20226;-67
2022/03/05 09:48:27;;;;;;;7.03;4.33;;;10.00;46.40;;;;;;5015638;28;20243;-67
2022/03/05 09:50:55;;;;;;;10.30;4.70;;;9.90;48.10;;;;;;5021551;28;20212;-67
2022/03/05 09:53:30;;;;;;;8.93;5.53;;;9.90;47.30;;;;;;5025185;28;20199;-68
2022/03/05 09:55:57;;;;;;;8.93;4.83;;;9.90;47.80;;;;;;5016705;28;20208;-65
2022/03/05 09:58:45;;;;;;;7.20;4.43;;;9.90;47.30;;;;;;5017614;28;20577;-65
2022/03/05 10:01:12;;;;;;;5.70;3.80;;;9.90;48.00;;;;;;5024555;28;20219;-65
2022/03/05 10:03:47;;;;;;;9.87;4.73;;;9.90;47.30;;;;;;5021915;28;20199;-65
2022/03/05 10:06:20;;;;;;;7.00;4.60;;;9.90;47.70;;;;;;5025787;28;20191;-65
2022/03/05 10:08:48;;;;;;;10.53;5.27;;;9.90;48.20;;;;;;5023546;28;20238;-65
2022/03/05 10:11:15;;;;;;;7.10;4.23;;;9.90;48.00;;;;;;5021901;28;20203;-65
2022/03/05 10:13:43;;;;;;;12.20;5.10;;;9.80;47.40;;;;;;5013299;28;20330;-65
2022/03/05 10:16:32;;;;;;;8.73;4.80;;;9.80;48.30;;;;;;5022712;28;20208;-65
2022/03/05 10:19:21;;;;;;;7.33;4.93;;;10.00;47.40;;;;;;5018166;28;20204;-65
2022/03/05 10:21:58;;;;;;;7.53;3.90;;;10.20;48.70;;;;;;5016495;28;20247;-65
2022/03/05 10:24:31;;;;;;;10.27;4.97;;;10.50;47.60;;;;;;5025776;28;20200;-65
2022/03/05 10:26:58;;;;;;;9.10;5.17;;;10.80;44.80;;;;;;5022538;28;20268;-65
2022/03/05 10:29:34;;;;;;;11.97;4.97;;;10.90;44.40;;;;;;5019446;28;20205;-65
2022/03/05 10:32:07;;;;;;;6.67;4.73;;;10.80;43.20;;;;;;5007429;28;20505;-65
2022/03/05 10:34:48;;;;;;;12.20;4.97;;;10.70;43.50;;;;;;5019859;28;20619;-65
2022/03/05 10:37:19;;;;;;;6.63;5.00;;;10.50;43.50;;;;;;5022651;28;20215;-65
2022/03/05 10:39:48;;;;;;;8.20;5.00;;;10.40;44.60;;;;;;5023031;28;20201;-65
2022/03/05 10:42:25;;;;;;;12.77;5.10;;;10.40;44.60;;;;;;5016160;28;20232;-65
2022/03/05 10:45:11;;;;;;;11.57;5.87;;;10.40;45.00;;;;;;5020635;28;20216;-66
2022/03/05 10:47:45;;;;;;;11.83;5.47;;;10.60;43.50;;;;;;5014583;28;20213;-66
2022/03/05 10:50:23;;;;;;;7.67;4.73;;;10.80;43.30;;;;;;5020822;28;20204;-65
2022/03/05 10:52:55;;;;;;;10.07;5.43;;;11.00;42.30;;;;;;5017634;28;20225;-65
2022/03/05 10:55:27;;;;;;;10.70;5.47;;;11.30;42.10;;;;;;5015945;28;20208;-65
2022/03/05 10:57:58;;;;;;;7.90;5.57;;;11.40;42.90;;;;;;5027475;28;20211;-65
2022/03/05 11:00:26;;;;;;;7.60;5.53;;;11.40;41.10;;;;;;5023530;28;21908;-65
2022/03/05 11:02:55;;;;;;;11.10;5.57;;;11.40;41.80;;;;;;5011710;28;20578;-65
2022/03/05 11:05:23;;;;;;;9.13;5.47;;;11.50;43.40;;;;;;5019116;28;20224;-65
2022/03/05 11:07:52;;;;;;;8.33;5.20;;;11.60;41.80;;;;;;5021934;28;20206;-65
2022/03/05 11:10:22;;;;;;;9.80;5.70;;;11.70;40.90;;;;;;5021407;28;20204;-65
2022/03/05 11:12:52;;;;;;;7.00;4.70;;;11.90;41.50;;;;;;5022412;28;20208;-65
2022/03/05 11:15:19;;;;;;;8.00;5.07;;;12.00;38.70;;;;;;5014355;28;20306;-65
2022/03/05 11:17:46;;;;;;;7.97;5.43;;;12.00;40.00;;;;;;5018895;28;20208;-65
2022/03/05 11:20:15;;;;;;;7.93;4.90;;;12.00;38.80;;;;;;5024031;28;20197;-66
2022/03/05 11:22:46;;;;;;;6.70;4.20;;;11.90;37.90;;;;;;5001866;28;20593;-66
2022/03/05 11:25:20;;;;;;;7.43;5.03;;;11.80;36.80;;;;;;5016260;28;20271;-66
2022/03/05 11:27:52;;;;;;;8.20;5.00;;;11.80;39.30;;;;;;5017753;28;20545;-66
2022/03/05 11:30:20;;;;;;;8.87;5.53;;;11.80;39.80;;;;;;5016685;28;20213;-67
2022/03/05 11:32:47;;;;;;;7.33;4.70;;;11.90;40.40;;;;;;5008100;28;20583;-67
2022/03/05 11:35:22;;;;;;;6.07;4.67;;;12.00;39.90;;;;;;5024176;28;20203;-67
2022/03/05 11:37:50;;;;;;;8.93;5.20;;;12.00;35.50;;;;;;5015259;28;20215;-67
2022/03/05 11:40:42;;;;;;;7.13;4.60;;;12.00;38.90;;;;;;5018745;28;20209;-67
2022/03/05 11:43:17;;;;;;;10.03;5.70;;;12.10;39.00;;;;;;5024032;28;20301;-67
2022/03/05 11:45:48;;;;;;;16.10;5.10;;;12.10;39.30;;;;;;5020247;28;20558;-67
2022/03/05 11:48:25;;;;;;;6.83;4.87;;;12.10;37.00;;;;;;5012323;28;20213;-67
2022/03/05 11:50:54;;;;;;;11.13;5.10;;;12.10;38.30;;;;;;5018080;28;20223;-68
2022/03/05 11:53:22;;;;;;;8.63;4.30;;;12.10;36.50;;;;;;5026349;28;20213;-68
2022/03/05 11:55:49;;;;;;;6.03;4.40;;;12.00;36.30;;;;;;5021763;28;20204;-68
2022/03/05 11:58:24;;;;;;;6.90;4.60;;;12.10;38.30;;;;;;5028152;28;20210;-68
2022/03/05 12:00:54;;;;;;;5.57;4.53;;;12.10;38.20;;;;;;4998604;28;20262;-69
2022/03/05 12:03:22;;;;;;;13.33;5.07;;;12.10;36.60;;;;;;5022244;28;20205;-69
2022/03/05 12:05:52;;;;;;;7.30;5.17;;;12.10;39.50;;;;;;5024035;28;20264;-69
2022/03/05 12:08:21;;;;;;;5.63;4.60;;;12.10;40.20;;;;;;5019148;28;20224;-69
2022/03/05 12:11:14;;;;;;;9.23;5.20;;;12.10;36.60;;;;;;5013680;28;20216;-69
2022/03/05 12:13:55;;;;;;;7.97;5.27;;;12.00;37.00;;;;;;5020993;28;20212;-69
2022/03/05 12:16:28;;;;;;;5.80;4.37;;;11.80;36.40;;;;;;4998050;28;20300;-67
2022/03/05 12:18:57;;;;;;;6.97;4.87;;;11.60;37.20;;;;;;5019910;28;20241;-67
2022/03/05 12:21:33;;;;;;;10.40;4.93;;;11.50;39.60;;;;;;5014706;28;20216;-67
2022/03/05 12:24:10;;;;;;;10.47;4.27;;;11.50;39.10;;;;;;5025926;28;20200;-67
2022/03/05 12:26:43;;;;;;;6.97;4.90;;;11.50;40.20;;;;;;5024443;28;20210;-67
2022/03/05 12:29:11;;;;;;;7.97;4.60;;;11.60;40.80;;;;;;5026703;28;20204;-67
2022/03/05 12:31:40;;;;;;;13.47;4.43;;;11.70;40.60;;;;;;4995719;28;20215;-67
2022/03/05 12:34:08;;;;;;;7.30;4.90;;;11.70;36.70;;;;;;5016576;28;20223;-67
2022/03/05 12:36:44;;;;;;;7.80;5.33;;;11.70;37.80;;;;;;5023724;28;20676;-67
2022/03/05 12:39:12;;;;;;;6.27;4.30;;;11.80;38.10;;;;;;5024631;28;20290;-67
2022/03/05 12:41:42;;;;;;;9.10;4.73;;;11.80;37.50;;;;;;5021683;28;20688;-67
2022/03/05 12:44:14;;;;;;;5.60;4.10;;;11.80;35.70;;;;;;5015884;28;20219;-67
2022/03/05 12:46:42;;;;;;;10.20;4.60;;;11.80;35.60;;;;;;5029008;28;20271;-67
2022/03/05 12:49:09;;;;;;;7.20;4.40;;;11.80;37.80;;;;;;5023568;28;20264;-67
2022/03/05 12:51:36;;;;;;;7.67;4.50;;;11.80;37.20;;;;;;5025313;28;20208;-67